sensor_id;sensor_type;location;lat;lon;timestamp;pressure;altitude;pressure_sealevel;temperature;humidity
4167;BME280;2097;51.104;7.150;2022-12-20T00:01:54;98925.41;;;8.05;100.00
4167;BME280;2097;51.104;7.150;2022-12-20T00:04:21;98929.00;;;8.03;100.00
4167;BME280;2097;51.104;7.150;2022-12-20T00:06:49;98804.97;;;7.29;100.00
4167;BME280;2097;51.104;7.150;2022-12-20T00:09:16;98802.25;;;7.32;100.00
4167;BME280;2097;51.104;7.150;2022-12-20T00:11:43;98922.84;;;8.05;100.00
4167;BME280;2097;51.104;7.150;2022-12-20T00:14:09;98888.28;;;7.89;100.00
4167;BME280;2097;51.104;7.150;2022-12-20T00:16:37;98910.63;;;8.09;100.00
4167;BME280;2097;51.104;7.150;2022-12-20T00:19:05;98908.88;;;8.09;100.00
4167;BME280;2097;51.104;7.150;2022-12-20T00:21:33;98605.50;;;6.35;100.00
4167;BME280;2097;51.104;7.150;2022-12-20T00:24:02;98899.25;;;8.13;100.00
4167;BME280;2097;51.104;7.150;2022-12-20T00:26:31;98830.53;;;7.72;100.00
4167;BME280;2097;51.104;7.150;2022-12-20T00:28:58;98792.84;;;7.50;100.00
4167;BME280;2097;51.104;7.150;2022-12-20T00:31:27;98898.66;;;8.06;100.00
4167;BME280;2097;51.104;7.150;2022-12-20T00:33:55;98892.69;;;8.06;100.00
4167;BME280;2097;51.104;7.150;2022-12-20T00:36:24;98880.66;;;8.05;100.00
4167;BME280;2097;51.104;7.150;2022-12-20T00:38:53;98799.06;;;7.64;100.00
4167;BME280;2097;51.104;7.150;2022-12-20T00:41:22;98862.34;;;8.09;100.00
4167;BME280;2097;51.104;7.150;2022-12-20T00:43:50;98857.13;;;8.11;100.00
4167;BME280;2097;51.104;7.150;2022-12-20T00:46:18;98856.22;;;8.12;100.00
4167;BME280;2097;51.104;7.150;2022-12-20T00:48:45;98858.84;;;8.10;100.00
4167;BME280;2097;51.104;7.150;2022-12-20T00:51:14;98852.16;;;8.06;100.00
4167;BME280;2097;51.104;7.150;2022-12-20T00:53:42;98857.31;;;8.06;100.00
4167;BME280;2097;51.104;7.150;2022-12-20T00:56:09;98796.34;;;7.67;100.00
4167;BME280;2097;51.104;7.150;2022-12-20T00:58:39;98677.13;;;7.04;100.00
4167;BME280;2097;51.104;7.150;2022-12-20T01:01:16;98781.22;;;7.60;100.00
4167;BME280;2097;51.104;7.150;2022-12-20T01:03:44;98866.28;;;7.99;100.00
4167;BME280;2097;51.104;7.150;2022-12-20T01:06:10;98881.63;;;8.02;100.00
4167;BME280;2097;51.104;7.150;2022-12-20T01:08:37;98558.94;;;6.01;100.00
4167;BME280;2097;51.104;7.150;2022-12-20T01:11:06;98898.34;;;7.95;100.00
4167;BME280;2097;51.104;7.150;2022-12-20T01:13:35;98892.53;;;7.90;100.00
4167;BME280;2097;51.104;7.150;2022-12-20T01:16:05;98884.16;;;7.86;100.00
4167;BME280;2097;51.104;7.150;2022-12-20T01:18:32;98866.88;;;7.68;100.00
4167;BME280;2097;51.104;7.150;2022-12-20T01:21:00;98787.38;;;7.19;100.00
4167;BME280;2097;51.104;7.150;2022-12-20T01:23:28;98853.00;;;7.52;100.00
4167;BME280;2097;51.104;7.150;2022-12-20T01:25:57;98893.81;;;7.82;100.00
4167;BME280;2097;51.104;7.150;2022-12-20T01:28:24;98892.81;;;7.85;100.00
4167;BME280;2097;51.104;7.150;2022-12-20T01:30:51;98887.56;;;7.86;100.00
4167;BME280;2097;51.104;7.150;2022-12-20T01:33:19;98883.16;;;7.88;100.00
4167;BME280;2097;51.104;7.150;2022-12-20T01:35:54;98725.44;;;7.00;100.00
4167;BME280;2097;51.104;7.150;2022-12-20T01:38:22;98879.63;;;7.90;100.00
4167;BME280;2097;51.104;7.150;2022-12-20T01:40:49;98879.63;;;7.90;100.00
4167;BME280;2097;51.104;7.150;2022-12-20T01:43:18;98553.25;;;5.93;100.00
4167;BME280;2097;51.104;7.150;2022-12-20T01:45:45;98854.75;;;7.70;100.00
4167;BME280;2097;51.104;7.150;2022-12-20T01:48:14;98874.72;;;7.85;100.00
4167;BME280;2097;51.104;7.150;2022-12-20T01:50:45;98737.84;;;6.92;100.00
4167;BME280;2097;51.104;7.150;2022-12-20T01:53:13;98723.97;;;6.95;100.00
4167;BME280;2097;51.104;7.150;2022-12-20T01:55:41;98866.44;;;7.78;100.00
4167;BME280;2097;51.104;7.150;2022-12-20T01:58:09;98862.22;;;7.76;100.00
4167;BME280;2097;51.104;7.150;2022-12-20T02:00:38;98557.22;;;5.82;100.00
4167;BME280;2097;51.104;7.150;2022-12-20T02:03:07;98851.56;;;7.65;100.00
4167;BME280;2097;51.104;7.150;2022-12-20T02:05:36;98517.78;;;5.40;100.00
4167;BME280;2097;51.104;7.150;2022-12-20T02:08:06;98396.06;;;4.80;100.00
4167;BME280;2097;51.104;7.150;2022-12-20T02:10:43;98863.69;;;7.63;100.00
4167;BME280;2097;51.104;7.150;2022-12-20T02:13:18;98861.25;;;7.60;100.00
4167;BME280;2097;51.104;7.150;2022-12-20T02:15:53;98872.41;;;7.60;100.00
4167;BME280;2097;51.104;7.150;2022-12-20T02:18:22;98854.28;;;7.62;100.00
4167;BME280;2097;51.104;7.150;2022-12-20T02:21:13;98852.47;;;7.64;100.00
4167;BME280;2097;51.104;7.150;2022-12-20T02:24:01;98849.03;;;7.63;100.00
4167;BME280;2097;51.104;7.150;2022-12-20T02:26:41;98496.44;;;5.38;100.00
4167;BME280;2097;51.104;7.150;2022-12-20T02:29:22;98310.88;;;4.49;100.00
4167;BME280;2097;51.104;7.150;2022-12-20T02:31:59;98827.88;;;7.55;100.00
4167;BME280;2097;51.104;7.150;2022-12-20T02:34:30;98824.47;;;7.55;100.00
4167;BME280;2097;51.104;7.150;2022-12-20T02:36:58;98805.41;;;7.39;100.00
4167;BME280;2097;51.104;7.150;2022-12-20T02:39:28;98170.88;;;3.59;100.00
4167;BME280;2097;51.104;7.150;2022-12-20T02:41:59;98502.69;;;5.53;100.00
4167;BME280;2097;51.104;7.150;2022-12-20T02:44:27;98835.19;;;7.46;100.00
4167;BME280;2097;51.104;7.150;2022-12-20T02:47:20;98826.00;;;7.40;100.00
4167;BME280;2097;51.104;7.150;2022-12-20T02:49:48;98817.41;;;7.40;100.00
4167;BME280;2097;51.104;7.150;2022-12-20T02:52:16;98812.38;;;7.37;100.00
4167;BME280;2097;51.104;7.150;2022-12-20T02:54:47;98374.84;;;4.55;100.00
4167;BME280;2097;51.104;7.150;2022-12-20T02:57:17;98471.28;;;5.25;100.00
4167;BME280;2097;51.104;7.150;2022-12-20T02:59:51;98245.38;;;3.99;100.00
4167;BME280;2097;51.104;7.150;2022-12-20T03:02:23;98629.69;;;6.13;100.00
4167;BME280;2097;51.104;7.150;2022-12-20T03:04:51;98409.56;;;4.65;100.00
4167;BME280;2097;51.104;7.150;2022-12-20T03:07:20;98815.09;;;7.34;100.00
4167;BME280;2097;51.104;7.150;2022-12-20T03:09:47;98814.19;;;7.35;100.00
4167;BME280;2097;51.104;7.150;2022-12-20T03:12:14;98648.28;;;6.19;100.00
4167;BME280;2097;51.104;7.150;2022-12-20T03:14:42;98826.25;;;7.34;100.00
4167;BME280;2097;51.104;7.150;2022-12-20T03:17:09;98728.94;;;6.79;100.00
4167;BME280;2097;51.104;7.150;2022-12-20T03:19:37;98558.53;;;5.70;100.00
4167;BME280;2097;51.104;7.150;2022-12-20T03:22:04;98811.88;;;7.29;100.00
4167;BME280;2097;51.104;7.150;2022-12-20T03:24:31;98358.66;;;4.53;100.00
4167;BME280;2097;51.104;7.150;2022-12-20T03:26:58;98798.22;;;7.27;100.00
4167;BME280;2097;51.104;7.150;2022-12-20T03:29:25;98804.19;;;7.27;100.00
4167;BME280;2097;51.104;7.150;2022-12-20T03:31:52;98808.47;;;7.28;100.00
4167;BME280;2097;51.104;7.150;2022-12-20T03:34:19;98788.47;;;7.13;100.00
4167;BME280;2097;51.104;7.150;2022-12-20T03:36:47;98818.66;;;7.31;100.00
4167;BME280;2097;51.104;7.150;2022-12-20T03:39:14;98437.13;;;4.81;100.00
4167;BME280;2097;51.104;7.150;2022-12-20T03:41:41;98563.56;;;5.73;100.00
4167;BME280;2097;51.104;7.150;2022-12-20T03:44:08;98267.41;;;4.03;100.00
4167;BME280;2097;51.104;7.150;2022-12-20T03:46:35;98826.91;;;7.39;100.00
4167;BME280;2097;51.104;7.150;2022-12-20T03:49:02;98343.91;;;4.58;100.00
4167;BME280;2097;51.104;7.150;2022-12-20T03:51:29;98663.25;;;6.50;100.00
4167;BME280;2097;51.104;7.150;2022-12-20T03:53:57;98476.19;;;5.31;100.00
4167;BME280;2097;51.104;7.150;2022-12-20T03:56:24;98819.97;;;7.40;100.00
4167;BME280;2097;51.104;7.150;2022-12-20T03:58:51;98830.31;;;7.40;100.00
4167;BME280;2097;51.104;7.150;2022-12-20T04:01:20;98477.63;;;5.38;100.00
4167;BME280;2097;51.104;7.150;2022-12-20T04:03:47;98564.59;;;5.69;100.00
4167;BME280;2097;51.104;7.150;2022-12-20T04:06:14;98834.69;;;7.38;100.00
4167;BME280;2097;51.104;7.150;2022-12-20T04:08:41;98316.56;;;4.36;100.00
4167;BME280;2097;51.104;7.150;2022-12-20T04:11:10;98306.44;;;4.11;100.00
4167;BME280;2097;51.104;7.150;2022-12-20T04:13:43;98853.66;;;7.37;100.00
4167;BME280;2097;51.104;7.150;2022-12-20T04:16:10;98784.06;;;6.97;100.00
4167;BME280;2097;51.104;7.150;2022-12-20T04:18:37;98561.03;;;5.72;100.00
4167;BME280;2097;51.104;7.150;2022-12-20T04:21:04;98842.44;;;7.38;100.00
4167;BME280;2097;51.104;7.150;2022-12-20T04:23:33;98848.50;;;7.37;100.00
4167;BME280;2097;51.104;7.150;2022-12-20T04:26:00;98750.72;;;6.92;100.00
4167;BME280;2097;51.104;7.150;2022-12-20T04:28:29;98748.69;;;6.80;100.00
4167;BME280;2097;51.104;7.150;2022-12-20T04:30:56;98364.28;;;4.41;100.00
4167;BME280;2097;51.104;7.150;2022-12-20T04:33:24;98484.81;;;5.30;100.00
4167;BME280;2097;51.104;7.150;2022-12-20T04:35:51;98346.81;;;4.29;100.00
4167;BME280;2097;51.104;7.150;2022-12-20T04:38:18;98639.50;;;6.43;100.00
4167;BME280;2097;51.104;7.150;2022-12-20T04:40:47;98814.19;;;7.35;100.00
4167;BME280;2097;51.104;7.150;2022-12-20T04:43:15;98342.22;;;4.57;100.00
4167;BME280;2097;51.104;7.150;2022-12-20T04:45:45;98484.56;;;5.36;100.00
4167;BME280;2097;51.104;7.150;2022-12-20T04:48:12;98313.22;;;4.14;100.00
4167;BME280;2097;51.104;7.150;2022-12-20T04:50:39;98733.63;;;6.72;100.00
4167;BME280;2097;51.104;7.150;2022-12-20T04:53:07;98458.56;;;5.22;100.00
4167;BME280;2097;51.104;7.150;2022-12-20T04:55:52;98231.34;;;3.86;100.00
4167;BME280;2097;51.104;7.150;2022-12-20T04:58:19;98643.19;;;6.18;100.00
4167;BME280;2097;51.104;7.150;2022-12-20T05:00:47;98721.09;;;6.82;100.00
4167;BME280;2097;51.104;7.150;2022-12-20T05:03:17;98673.09;;;6.60;100.00
4167;BME280;2097;51.104;7.150;2022-12-20T05:05:46;98750.25;;;7.03;100.00
4167;BME280;2097;51.104;7.150;2022-12-20T05:08:13;98789.63;;;7.26;100.00
4167;BME280;2097;51.104;7.150;2022-12-20T05:10:46;98523.44;;;5.68;100.00
4167;BME280;2097;51.104;7.150;2022-12-20T05:13:16;98561.09;;;5.70;100.00
4167;BME280;2097;51.104;7.150;2022-12-20T05:15:43;98343.13;;;4.56;100.00
4167;BME280;2097;51.104;7.150;2022-12-20T05:18:11;98238.56;;;3.98;100.00
4167;BME280;2097;51.104;7.150;2022-12-20T05:20:39;98741.63;;;7.04;100.00
4167;BME280;2097;51.104;7.150;2022-12-20T05:23:11;98681.22;;;6.71;100.00
4167;BME280;2097;51.104;7.150;2022-12-20T05:26:02;98436.97;;;5.26;100.00
4167;BME280;2097;51.104;7.150;2022-12-20T05:28:44;98740.22;;;7.15;100.00
4167;BME280;2097;51.104;7.150;2022-12-20T05:31:11;98514.28;;;5.82;100.00
4167;BME280;2097;51.104;7.150;2022-12-20T05:33:40;98759.19;;;7.33;100.00
4167;BME280;2097;51.104;7.150;2022-12-20T05:36:07;98766.94;;;7.33;100.00
4167;BME280;2097;51.104;7.150;2022-12-20T05:38:34;98736.06;;;7.31;100.00
4167;BME280;2097;51.104;7.150;2022-12-20T05:41:01;98743.66;;;7.34;100.00
4167;BME280;2097;51.104;7.150;2022-12-20T05:43:29;98634.25;;;6.65;100.00
4167;BME280;2097;51.104;7.150;2022-12-20T05:45:56;98744.50;;;7.35;100.00
4167;BME280;2097;51.104;7.150;2022-12-20T05:48:23;98744.34;;;7.38;100.00
4167;BME280;2097;51.104;7.150;2022-12-20T05:50:51;98356.16;;;5.11;100.00
4167;BME280;2097;51.104;7.150;2022-12-20T05:53:18;98724.47;;;7.21;100.00
4167;BME280;2097;51.104;7.150;2022-12-20T05:55:48;98727.00;;;7.41;100.00
4167;BME280;2097;51.104;7.150;2022-12-20T05:58:15;98734.75;;;7.41;100.00
4167;BME280;2097;51.104;7.150;2022-12-20T06:00:43;98739.00;;;7.42;100.00
4167;BME280;2097;51.104;7.150;2022-12-20T06:03:10;98749.31;;;7.42;100.00
4167;BME280;2097;51.104;7.150;2022-12-20T06:05:40;98741.63;;;7.41;100.00
4167;BME280;2097;51.104;7.150;2022-12-20T06:08:09;98648.19;;;6.79;100.00
4167;BME280;2097;51.104;7.150;2022-12-20T06:10:38;98602.47;;;6.64;100.00
4167;BME280;2097;51.104;7.150;2022-12-20T06:13:06;98685.34;;;7.12;100.00
4167;BME280;2097;51.104;7.150;2022-12-20T06:15:33;98661.91;;;6.98;100.00
4167;BME280;2097;51.104;7.150;2022-12-20T06:18:00;98729.22;;;7.49;100.00
4167;BME280;2097;51.104;7.150;2022-12-20T06:20:28;98418.00;;;5.66;100.00
4167;BME280;2097;51.104;7.150;2022-12-20T06:22:55;98732.63;;;7.49;100.00
4167;BME280;2097;51.104;7.150;2022-12-20T06:25:24;98719.72;;;7.49;100.00
4167;BME280;2097;51.104;7.150;2022-12-20T06:27:51;98727.44;;;7.49;100.00
4167;BME280;2097;51.104;7.150;2022-12-20T06:30:18;98743.03;;;7.48;100.00
4167;BME280;2097;51.104;7.150;2022-12-20T06:32:44;98731.03;;;7.47;100.00
4167;BME280;2097;51.104;7.150;2022-12-20T06:35:11;98726.84;;;7.44;100.00
4167;BME280;2097;51.104;7.150;2022-12-20T06:37:39;98608.75;;;6.77;100.00
4167;BME280;2097;51.104;7.150;2022-12-20T06:40:08;98724.31;;;7.43;100.00
4167;BME280;2097;51.104;7.150;2022-12-20T06:42:36;98641.72;;;6.89;100.00
4167;BME280;2097;51.104;7.150;2022-12-20T06:45:04;98642.19;;;6.97;100.00
4167;BME280;2097;51.104;7.150;2022-12-20T06:47:31;98708.03;;;7.42;100.00
4167;BME280;2097;51.104;7.150;2022-12-20T06:49:57;98718.41;;;7.41;100.00
4167;BME280;2097;51.104;7.150;2022-12-20T06:52:24;98294.16;;;4.79;100.00
4167;BME280;2097;51.104;7.150;2022-12-20T06:54:51;98717.56;;;7.40;100.00
4167;BME280;2097;51.104;7.150;2022-12-20T06:57:18;98702.09;;;7.40;100.00
4167;BME280;2097;51.104;7.150;2022-12-20T06:59:46;98714.13;;;7.40;100.00
4167;BME280;2097;51.104;7.150;2022-12-20T07:02:13;98706.25;;;7.43;100.00
4167;BME280;2097;51.104;7.150;2022-12-20T07:04:40;98708.03;;;7.42;100.00
4167;BME280;2097;51.104;7.150;2022-12-20T07:07:07;98228.50;;;4.53;100.00
4167;BME280;2097;51.104;7.150;2022-12-20T07:09:34;98703.81;;;7.40;100.00
4167;BME280;2097;51.104;7.150;2022-12-20T07:12:02;98604.84;;;6.87;100.00
4167;BME280;2097;51.104;7.150;2022-12-20T07:14:29;98695.16;;;7.41;100.00
4167;BME280;2097;51.104;7.150;2022-12-20T07:16:57;98578.34;;;6.65;100.00
4167;BME280;2097;51.104;7.150;2022-12-20T07:19:24;98683.16;;;7.40;100.00
4167;BME280;2097;51.104;7.150;2022-12-20T07:21:51;98688.28;;;7.41;100.00
4167;BME280;2097;51.104;7.150;2022-12-20T07:24:18;98644.22;;;7.09;100.00
4167;BME280;2097;51.104;7.150;2022-12-20T07:26:45;98610.69;;;6.90;100.00
4167;BME280;2097;51.104;7.150;2022-12-20T07:29:12;98692.53;;;7.42;100.00
4167;BME280;2097;51.104;7.150;2022-12-20T07:31:39;98612.91;;;6.98;100.00
4167;BME280;2097;51.104;7.150;2022-12-20T07:34:07;98682.41;;;7.38;100.00
4167;BME280;2097;51.104;7.150;2022-12-20T07:36:34;98612.22;;;6.94;100.00
4167;BME280;2097;51.104;7.150;2022-12-20T07:39:01;98689.22;;;7.39;100.00
4167;BME280;2097;51.104;7.150;2022-12-20T07:41:28;98666.72;;;7.42;100.00
4167;BME280;2097;51.104;7.150;2022-12-20T07:43:55;98528.34;;;6.51;100.00
4167;BME280;2097;51.104;7.150;2022-12-20T07:46:23;98523.19;;;6.32;100.00
4167;BME280;2097;51.104;7.150;2022-12-20T07:48:50;98688.91;;;7.46;100.00
4167;BME280;2097;51.104;7.150;2022-12-20T07:51:21;98680.31;;;7.46;100.00
4167;BME280;2097;51.104;7.150;2022-12-20T07:53:51;98479.00;;;6.03;100.00
4167;BME280;2097;51.104;7.150;2022-12-20T07:56:21;98679.25;;;7.50;100.00
4167;BME280;2097;51.104;7.150;2022-12-20T07:58:49;98680.84;;;7.52;100.00
4167;BME280;2097;51.104;7.150;2022-12-20T08:01:19;98668.69;;;7.54;100.00
4167;BME280;2097;51.104;7.150;2022-12-20T08:03:50;98676.38;;;7.56;100.00
4167;BME280;2097;51.104;7.150;2022-12-20T08:06:20;98575.88;;;6.99;100.00
4167;BME280;2097;51.104;7.150;2022-12-20T08:08:50;98674.56;;;7.58;100.00
4167;BME280;2097;51.104;7.150;2022-12-20T08:11:21;98675.34;;;7.60;100.00
4167;BME280;2097;51.104;7.150;2022-12-20T08:13:48;98643.47;;;7.42;100.00
4167;BME280;2097;51.104;7.150;2022-12-20T08:16:16;98674.44;;;7.61;100.00
4167;BME280;2097;51.104;7.150;2022-12-20T08:18:43;98461.34;;;6.32;100.00
4167;BME280;2097;51.104;7.150;2022-12-20T08:21:10;98597.25;;;7.19;100.00
4167;BME280;2097;51.104;7.150;2022-12-20T08:23:40;98684.44;;;7.67;100.00
4167;BME280;2097;51.104;7.150;2022-12-20T08:26:07;98681.72;;;7.70;100.00
4167;BME280;2097;51.104;7.150;2022-12-20T08:28:34;98676.50;;;7.71;100.00
4167;BME280;2097;51.104;7.150;2022-12-20T08:31:01;98526.91;;;6.80;100.00
4167;BME280;2097;51.104;7.150;2022-12-20T08:33:28;98681.38;;;7.77;100.00
4167;BME280;2097;51.104;7.150;2022-12-20T08:35:59;98682.19;;;7.78;100.00
4167;BME280;2097;51.104;7.150;2022-12-20T08:38:26;98524.94;;;6.85;100.00
4167;BME280;2097;51.104;7.150;2022-12-20T08:41:01;98514.63;;;6.85;100.00
4167;BME280;2097;51.104;7.150;2022-12-20T08:43:28;98669.06;;;7.82;100.00
4167;BME280;2097;51.104;7.150;2022-12-20T08:45:54;98680.22;;;7.83;100.00
4167;BME280;2097;51.104;7.150;2022-12-20T08:48:21;98630.38;;;7.64;100.00
4167;BME280;2097;51.104;7.150;2022-12-20T08:50:53;98670.66;;;7.85;100.00
4167;BME280;2097;51.104;7.150;2022-12-20T08:53:20;98632.34;;;7.59;100.00
4167;BME280;2097;51.104;7.150;2022-12-20T08:55:47;98552.78;;;7.14;100.00
4167;BME280;2097;51.104;7.150;2022-12-20T08:58:16;98636.22;;;7.67;100.00
4167;BME280;2097;51.104;7.150;2022-12-20T09:00:43;98668.97;;;7.84;100.00
4167;BME280;2097;51.104;7.150;2022-12-20T09:03:10;98668.22;;;7.82;100.00
4167;BME280;2097;51.104;7.150;2022-12-20T09:05:43;98663.94;;;7.81;100.00
4167;BME280;2097;51.104;7.150;2022-12-20T09:08:10;98660.47;;;7.82;100.00
4167;BME280;2097;51.104;7.150;2022-12-20T09:10:37;98664.72;;;7.83;100.00
4167;BME280;2097;51.104;7.150;2022-12-20T09:13:04;98555.97;;;7.19;100.00
4167;BME280;2097;51.104;7.150;2022-12-20T09:15:32;98665.53;;;7.83;100.00
4167;BME280;2097;51.104;7.150;2022-12-20T09:17:59;98664.34;;;7.90;100.00
4167;BME280;2097;51.104;7.150;2022-12-20T09:20:26;98639.31;;;7.74;100.00
4167;BME280;2097;51.104;7.150;2022-12-20T09:22:53;98667.63;;;7.93;100.00
4167;BME280;2097;51.104;7.150;2022-12-20T09:25:20;98668.38;;;7.95;100.00
4167;BME280;2097;51.104;7.150;2022-12-20T09:27:47;98631.44;;;7.77;100.00
4167;BME280;2097;51.104;7.150;2022-12-20T09:30:14;98664.03;;;7.96;100.00
4167;BME280;2097;51.104;7.150;2022-12-20T09:32:42;98668.38;;;7.95;100.00
4167;BME280;2097;51.104;7.150;2022-12-20T09:35:10;98665.03;;;7.93;100.00
4167;BME280;2097;51.104;7.150;2022-12-20T09:37:37;98557.66;;;7.20;100.00
4167;BME280;2097;51.104;7.150;2022-12-20T09:40:05;98679.53;;;7.96;100.00
4167;BME280;2097;51.104;7.150;2022-12-20T09:42:33;98596.53;;;7.51;100.00
4167;BME280;2097;51.104;7.150;2022-12-20T09:45:05;98590.72;;;7.48;100.00
4167;BME280;2097;51.104;7.150;2022-12-20T09:47:33;98599.84;;;7.55;100.00
4167;BME280;2097;51.104;7.150;2022-12-20T09:50:04;98671.03;;;7.94;100.00
4167;BME280;2097;51.104;7.150;2022-12-20T09:52:46;98661.41;;;7.97;100.00
4167;BME280;2097;51.104;7.150;2022-12-20T09:55:24;98547.50;;;7.34;100.00
4167;BME280;2097;51.104;7.150;2022-12-20T09:58:04;98637.97;;;7.84;100.00
4167;BME280;2097;51.104;7.150;2022-12-20T10:00:40;98640.03;;;8.11;100.00
4167;BME280;2097;51.104;7.150;2022-12-20T10:03:14;98626.72;;;8.01;100.00
4167;BME280;2097;51.104;7.150;2022-12-20T10:05:50;98647.94;;;8.25;100.00
4167;BME280;2097;51.104;7.150;2022-12-20T10:08:24;98651.22;;;8.28;100.00
4167;BME280;2097;51.104;7.150;2022-12-20T10:10:55;98663.91;;;8.33;100.00
4167;BME280;2097;51.104;7.150;2022-12-20T10:13:49;98618.06;;;8.19;100.00
4167;BME280;2097;51.104;7.150;2022-12-20T10:16:38;98632.25;;;8.45;100.00
4167;BME280;2097;51.104;7.150;2022-12-20T10:19:25;98631.03;;;8.52;100.00
4167;BME280;2097;51.104;7.150;2022-12-20T10:22:04;98633.28;;;8.58;100.00
4167;BME280;2097;51.104;7.150;2022-12-20T10:24:34;98335.88;;;6.85;100.00
4167;BME280;2097;51.104;7.150;2022-12-20T10:27:10;98629.63;;;8.62;100.00
4167;BME280;2097;51.104;7.150;2022-12-20T10:29:38;98630.47;;;8.62;100.00
4167;BME280;2097;51.104;7.150;2022-12-20T10:32:12;98630.47;;;8.62;100.00
4167;BME280;2097;51.104;7.150;2022-12-20T10:34:44;98618.44;;;8.61;100.00
4167;BME280;2097;51.104;7.150;2022-12-20T10:37:17;98513.97;;;8.00;100.00
4167;BME280;2097;51.104;7.150;2022-12-20T10:39:47;98571.09;;;8.28;100.00
4167;BME280;2097;51.104;7.150;2022-12-20T10:42:24;98608.09;;;8.61;100.00
4167;BME280;2097;51.104;7.150;2022-12-20T10:44:54;98608.00;;;8.63;100.00
4167;BME280;2097;51.104;7.150;2022-12-20T10:47:28;98519.31;;;8.13;100.00
4167;BME280;2097;51.104;7.150;2022-12-20T10:50:11;98434.69;;;7.69;100.00
4167;BME280;2097;51.104;7.150;2022-12-20T10:52:40;98222.63;;;6.48;100.00
4167;BME280;2097;51.104;7.150;2022-12-20T10:55:31;98582.56;;;8.71;100.00
4167;BME280;2097;51.104;7.150;2022-12-20T10:58:01;98584.91;;;8.75;100.00
4167;BME280;2097;51.104;7.150;2022-12-20T11:00:30;98574.22;;;8.81;100.00
4167;BME280;2097;51.104;7.150;2022-12-20T11:03:10;98575.56;;;8.88;100.00
4167;BME280;2097;51.104;7.150;2022-12-20T11:05:37;98488.03;;;8.34;100.00
4167;BME280;2097;51.104;7.150;2022-12-20T11:08:13;98462.25;;;8.33;100.00
4167;BME280;2097;51.104;7.150;2022-12-20T11:10:40;98440.59;;;8.35;100.00
4167;BME280;2097;51.104;7.150;2022-12-20T11:13:19;98559.38;;;9.15;100.00
4167;BME280;2097;51.104;7.150;2022-12-20T11:15:48;98564.97;;;9.23;100.00
4167;BME280;2097;51.104;7.150;2022-12-20T11:18:19;98562.00;;;9.29;100.00
4167;BME280;2097;51.104;7.150;2022-12-20T11:20:55;98557.56;;;9.31;100.00
4167;BME280;2097;51.104;7.150;2022-12-20T11:23:31;98482.25;;;8.91;100.00
4167;BME280;2097;51.104;7.150;2022-12-20T11:26:16;98288.84;;;7.76;100.00
4167;BME280;2097;51.104;7.150;2022-12-20T11:28:58;98477.94;;;8.92;100.00
4167;BME280;2097;51.104;7.150;2022-12-20T11:31:37;98495.59;;;8.99;100.00
4167;BME280;2097;51.104;7.150;2022-12-20T11:34:18;98432.81;;;8.66;100.00
4167;BME280;2097;51.104;7.150;2022-12-20T11:36:59;98542.47;;;9.24;100.00
4167;BME280;2097;51.104;7.150;2022-12-20T11:39:41;98542.66;;;9.21;100.00
4167;BME280;2097;51.104;7.150;2022-12-20T11:42:17;98551.50;;;9.17;100.00
4167;BME280;2097;51.104;7.150;2022-12-20T11:44:52;98538.56;;;9.17;100.00
4167;BME280;2097;51.104;7.150;2022-12-20T11:47:36;98537.81;;;9.15;100.00
4167;BME280;2097;51.104;7.150;2022-12-20T11:50:28;98536.88;;;9.16;100.00
4167;BME280;2097;51.104;7.150;2022-12-20T11:53:03;98530.78;;;9.17;100.00
4167;BME280;2097;51.104;7.150;2022-12-20T11:55:34;98522.09;;;9.18;100.00
4167;BME280;2097;51.104;7.150;2022-12-20T11:58:08;98529.81;;;9.19;100.00
4167;BME280;2097;51.104;7.150;2022-12-20T12:00:38;98520.09;;;9.23;100.00
4167;BME280;2097;51.104;7.150;2022-12-20T12:03:11;98514.75;;;9.26;100.00
4167;BME280;2097;51.104;7.150;2022-12-20T12:05:43;98458.22;;;8.89;100.00
4167;BME280;2097;51.104;7.150;2022-12-20T12:08:17;98519.84;;;9.27;100.00
4167;BME280;2097;51.104;7.150;2022-12-20T12:10:53;98448.63;;;8.91;100.00
4167;BME280;2097;51.104;7.150;2022-12-20T12:13:24;98511.25;;;9.27;100.00
4167;BME280;2097;51.104;7.150;2022-12-20T12:15:55;98508.75;;;9.25;100.00
4167;BME280;2097;51.104;7.150;2022-12-20T12:18:28;98485.66;;;9.07;100.00
4167;BME280;2097;51.104;7.150;2022-12-20T12:20:59;98480.25;;;8.96;100.00
4167;BME280;2097;51.104;7.150;2022-12-20T12:23:31;98518.25;;;9.25;100.00
4167;BME280;2097;51.104;7.150;2022-12-20T12:26:08;98521.75;;;9.24;100.00
4167;BME280;2097;51.104;7.150;2022-12-20T12:28:36;98515.50;;;9.28;100.00
4167;BME280;2097;51.104;7.150;2022-12-20T12:31:09;98521.44;;;9.30;100.00
4167;BME280;2097;51.104;7.150;2022-12-20T12:33:42;98468.69;;;9.02;100.00
4167;BME280;2097;51.104;7.150;2022-12-20T12:36:24;98453.63;;;8.94;100.00
4167;BME280;2097;51.104;7.150;2022-12-20T12:39:34;98521.16;;;9.34;100.00
4167;BME280;2097;51.104;7.150;2022-12-20T12:42:16;98523.56;;;9.37;100.00
4167;BME280;2097;51.104;7.150;2022-12-20T12:44:50;98353.19;;;8.42;100.00
4167;BME280;2097;51.104;7.150;2022-12-20T12:47:20;98513.13;;;9.39;100.00
4167;BME280;2097;51.104;7.150;2022-12-20T12:49:50;98515.72;;;9.39;100.00
4167;BME280;2097;51.104;7.150;2022-12-20T12:52:43;98442.53;;;8.92;100.00
4167;BME280;2097;51.104;7.150;2022-12-20T12:55:38;98508.88;;;9.38;100.00
4167;BME280;2097;51.104;7.150;2022-12-20T12:58:28;98508.13;;;9.36;100.00
4167;BME280;2097;51.104;7.150;2022-12-20T13:00:56;98255.69;;;7.84;100.00
4167;BME280;2097;51.104;7.150;2022-12-20T13:03:43;98500.38;;;9.36;100.00
4167;BME280;2097;51.104;7.150;2022-12-20T13:06:42;98494.25;;;9.37;100.00
4167;BME280;2097;51.104;7.150;2022-12-20T13:09:18;98497.03;;;9.34;100.00
4167;BME280;2097;51.104;7.150;2022-12-20T13:11:47;98496.34;;;9.30;100.00
4167;BME280;2097;51.104;7.150;2022-12-20T13:14:47;98501.97;;;9.23;100.00
4167;BME280;2097;51.104;7.150;2022-12-20T13:17:42;98501.41;;;9.18;100.00
4167;BME280;2097;51.104;7.150;2022-12-20T13:20:17;98474.16;;;8.97;100.00
4167;BME280;2097;51.104;7.150;2022-12-20T13:23:04;98499.84;;;9.15;100.00
4167;BME280;2097;51.104;7.150;2022-12-20T13:25:38;98467.13;;;8.99;100.00
4167;BME280;2097;51.104;7.150;2022-12-20T13:28:42;98346.41;;;8.39;100.00
4167;BME280;2097;51.104;7.150;2022-12-20T13:31:32;98485.69;;;9.21;100.00
4167;BME280;2097;51.104;7.150;2022-12-20T13:33:59;98400.00;;;8.67;100.00
4167;BME280;2097;51.104;7.150;2022-12-20T13:36:36;98483.56;;;9.13;100.00
4167;BME280;2097;51.104;7.150;2022-12-20T13:39:30;98477.63;;;9.11;100.00
4167;BME280;2097;51.104;7.150;2022-12-20T13:42:16;98475.03;;;9.11;100.00
4167;BME280;2097;51.104;7.150;2022-12-20T13:44:45;98472.63;;;9.08;100.00